sensor_id;sensor_type;location;lat;lon;timestamp;temperature;humidity
4103;DHT22;2065;49.790;9.620;2022-12-08T00:01:27;7.90;59.80
4103;DHT22;2065;49.790;9.620;2022-12-08T00:03:56;8.00;60.00
4103;DHT22;2065;49.790;9.620;2022-12-08T00:06:26;7.90;59.90
4103;DHT22;2065;49.790;9.620;2022-12-08T00:09:17;8.00;60.00
4103;DHT22;2065;49.790;9.620;2022-12-08T00:11:49;8.00;60.00
4103;DHT22;2065;49.790;9.620;2022-12-08T00:14:16;8.00;59.80
4103;DHT22;2065;49.790;9.620;2022-12-08T00:16:44;7.90;60.60
4103;DHT22;2065;49.790;9.620;2022-12-08T00:19:11;8.00;60.90
4103;DHT22;2065;49.790;9.620;2022-12-08T00:21:38;8.20;60.70
4103;DHT22;2065;49.790;9.620;2022-12-08T00:24:05;8.40;61.20
4103;DHT22;2065;49.790;9.620;2022-12-08T00:26:33;8.50;60.20
4103;DHT22;2065;49.790;9.620;2022-12-08T00:29:00;8.40;60.20
4103;DHT22;2065;49.790;9.620;2022-12-08T00:31:27;8.50;59.80
4103;DHT22;2065;49.790;9.620;2022-12-08T00:33:54;8.50;59.60
4103;DHT22;2065;49.790;9.620;2022-12-08T00:36:21;8.40;59.20
4103;DHT22;2065;49.790;9.620;2022-12-08T00:38:48;8.30;59.40
4103;DHT22;2065;49.790;9.620;2022-12-08T00:41:17;8.10;60.00
4103;DHT22;2065;49.790;9.620;2022-12-08T00:43:45;8.10;60.00
4103;DHT22;2065;49.790;9.620;2022-12-08T00:46:12;8.10;60.00
4103;DHT22;2065;49.790;9.620;2022-12-08T00:48:39;8.00;60.10
4103;DHT22;2065;49.790;9.620;2022-12-08T00:51:06;8.10;60.40
4103;DHT22;2065;49.790;9.620;2022-12-08T00:53:33;8.00;60.20
4103;DHT22;2065;49.790;9.620;2022-12-08T00:56:00;8.00;60.70
4103;DHT22;2065;49.790;9.620;2022-12-08T00:58:27;7.80;60.80
4103;DHT22;2065;49.790;9.620;2022-12-08T01:00:56;7.70;61.00
4103;DHT22;2065;49.790;9.620;2022-12-08T01:03:22;7.70;61.60
4103;DHT22;2065;49.790;9.620;2022-12-08T01:05:50;7.70;61.70
4103;DHT22;2065;49.790;9.620;2022-12-08T01:08:17;7.70;61.50
4103;DHT22;2065;49.790;9.620;2022-12-08T01:10:44;7.90;60.90
4103;DHT22;2065;49.790;9.620;2022-12-08T01:13:11;7.90;60.60
4103;DHT22;2065;49.790;9.620;2022-12-08T01:15:38;7.80;61.20
4103;DHT22;2065;49.790;9.620;2022-12-08T01:18:06;7.70;61.30
4103;DHT22;2065;49.790;9.620;2022-12-08T01:20:33;7.70;61.90
4103;DHT22;2065;49.790;9.620;2022-12-08T01:23:00;7.80;61.50
4103;DHT22;2065;49.790;9.620;2022-12-08T01:25:27;8.00;61.10
4103;DHT22;2065;49.790;9.620;2022-12-08T01:27:54;8.10;60.90
4103;DHT22;2065;49.790;9.620;2022-12-08T01:30:21;8.10;60.90
4103;DHT22;2065;49.790;9.620;2022-12-08T01:32:48;8.00;60.40
4103;DHT22;2065;49.790;9.620;2022-12-08T01:35:16;8.00;60.50
4103;DHT22;2065;49.790;9.620;2022-12-08T01:37:44;7.70;61.30
4103;DHT22;2065;49.790;9.620;2022-12-08T01:40:11;7.80;61.60
4103;DHT22;2065;49.790;9.620;2022-12-08T01:42:38;7.80;61.00
4103;DHT22;2065;49.790;9.620;2022-12-08T01:45:10;7.70;61.60
4103;DHT22;2065;49.790;9.620;2022-12-08T01:47:41;7.70;61.80
4103;DHT22;2065;49.790;9.620;2022-12-08T01:50:12;7.60;62.00
4103;DHT22;2065;49.790;9.620;2022-12-08T01:52:46;7.80;61.90
4103;DHT22;2065;49.790;9.620;2022-12-08T01:55:16;7.90;61.10
4103;DHT22;2065;49.790;9.620;2022-12-08T01:57:47;8.00;61.00
4103;DHT22;2065;49.790;9.620;2022-12-08T02:00:17;8.00;61.20
4103;DHT22;2065;49.790;9.620;2022-12-08T02:02:51;7.90;60.30
4103;DHT22;2065;49.790;9.620;2022-12-08T02:05:20;7.70;61.10
4103;DHT22;2065;49.790;9.620;2022-12-08T02:07:50;7.50;62.20
4103;DHT22;2065;49.790;9.620;2022-12-08T02:10:19;7.70;62.10
4103;DHT22;2065;49.790;9.620;2022-12-08T02:12:47;8.00;61.60
4103;DHT22;2065;49.790;9.620;2022-12-08T02:15:16;8.20;61.20
4103;DHT22;2065;49.790;9.620;2022-12-08T02:17:53;8.20;60.30
4103;DHT22;2065;49.790;9.620;2022-12-08T02:20:43;8.20;60.40
4103;DHT22;2065;49.790;9.620;2022-12-08T02:23:26;7.80;60.20
4103;DHT22;2065;49.790;9.620;2022-12-08T02:29:07;7.50;61.90
4103;DHT22;2065;49.790;9.620;2022-12-08T02:31:49;7.60;62.00
4103;DHT22;2065;49.790;9.620;2022-12-08T02:34:26;7.70;61.50
4103;DHT22;2065;49.790;9.620;2022-12-08T02:37:03;7.80;61.40
4103;DHT22;2065;49.790;9.620;2022-12-08T02:39:39;7.90;61.20
4103;DHT22;2065;49.790;9.620;2022-12-08T02:42:18;8.00;60.90
4103;DHT22;2065;49.790;9.620;2022-12-08T02:44:50;8.10;60.80
4103;DHT22;2065;49.790;9.620;2022-12-08T02:47:19;8.20;60.20
4103;DHT22;2065;49.790;9.620;2022-12-08T02:49:49;8.20;60.00
4103;DHT22;2065;49.790;9.620;2022-12-08T02:52:39;8.00;60.30
4103;DHT22;2065;49.790;9.620;2022-12-08T02:55:10;8.00;60.60
4103;DHT22;2065;49.790;9.620;2022-12-08T02:57:51;7.90;61.10
4103;DHT22;2065;49.790;9.620;2022-12-08T03:00:24;7.90;60.90
4103;DHT22;2065;49.790;9.620;2022-12-08T03:03:08;7.90;60.70
4103;DHT22;2065;49.790;9.620;2022-12-08T03:05:52;7.70;61.50
4103;DHT22;2065;49.790;9.620;2022-12-08T03:08:26;7.70;61.50
4103;DHT22;2065;49.790;9.620;2022-12-08T03:10:59;7.70;61.30
4103;DHT22;2065;49.790;9.620;2022-12-08T03:13:32;7.80;61.50
4103;DHT22;2065;49.790;9.620;2022-12-08T03:16:02;7.80;61.30
4103;DHT22;2065;49.790;9.620;2022-12-08T03:18:34;7.60;61.70
4103;DHT22;2065;49.790;9.620;2022-12-08T03:21:05;7.50;62.10
4103;DHT22;2065;49.790;9.620;2022-12-08T03:23:35;7.60;61.90
4103;DHT22;2065;49.790;9.620;2022-12-08T03:26:06;7.60;61.90
4103;DHT22;2065;49.790;9.620;2022-12-08T03:28:34;7.60;61.30
4103;DHT22;2065;49.790;9.620;2022-12-08T03:31:05;7.50;62.30
4103;DHT22;2065;49.790;9.620;2022-12-08T03:33:35;7.50;62.00
4103;DHT22;2065;49.790;9.620;2022-12-08T03:36:07;7.50;62.50
4103;DHT22;2065;49.790;9.620;2022-12-08T03:38:40;7.40;62.90
4103;DHT22;2065;49.790;9.620;2022-12-08T03:41:07;7.50;62.30
4103;DHT22;2065;49.790;9.620;2022-12-08T03:43:44;7.40;63.00
4103;DHT22;2065;49.790;9.620;2022-12-08T03:46:11;7.30;63.70
4103;DHT22;2065;49.790;9.620;2022-12-08T03:48:38;7.40;63.80
4103;DHT22;2065;49.790;9.620;2022-12-08T03:51:07;7.40;63.00
4103;DHT22;2065;49.790;9.620;2022-12-08T03:53:34;7.50;62.80
4103;DHT22;2065;49.790;9.620;2022-12-08T03:56:03;7.50;62.50
4103;DHT22;2065;49.790;9.620;2022-12-08T03:58:30;7.50;62.80
4103;DHT22;2065;49.790;9.620;2022-12-08T04:00:57;7.60;62.50
4103;DHT22;2065;49.790;9.620;2022-12-08T04:03:24;7.70;62.00
4103;DHT22;2065;49.790;9.620;2022-12-08T04:05:51;7.70;61.60
4103;DHT22;2065;49.790;9.620;2022-12-08T04:08:20;7.90;61.70
4103;DHT22;2065;49.790;9.620;2022-12-08T04:10:47;7.90;61.30
4103;DHT22;2065;49.790;9.620;2022-12-08T04:13:14;7.90;61.60
4103;DHT22;2065;49.790;9.620;2022-12-08T04:15:44;8.00;61.70
4103;DHT22;2065;49.790;9.620;2022-12-08T04:18:11;8.00;62.10
4103;DHT22;2065;49.790;9.620;2022-12-08T04:20:38;7.90;61.60
4103;DHT22;2065;49.790;9.620;2022-12-08T04:23:06;8.00;61.50
4103;DHT22;2065;49.790;9.620;2022-12-08T04:25:35;7.90;61.10
4103;DHT22;2065;49.790;9.620;2022-12-08T04:28:03;8.00;61.20
4103;DHT22;2065;49.790;9.620;2022-12-08T04:30:30;8.00;61.40
4103;DHT22;2065;49.790;9.620;2022-12-08T04:32:57;8.10;61.00
4103;DHT22;2065;49.790;9.620;2022-12-08T04:35:24;7.90;61.40
4103;DHT22;2065;49.790;9.620;2022-12-08T04:37:51;8.00;61.60
4103;DHT22;2065;49.790;9.620;2022-12-08T04:40:18;8.20;61.50
4103;DHT22;2065;49.790;9.620;2022-12-08T04:42:46;8.20;61.10
4103;DHT22;2065;49.790;9.620;2022-12-08T04:45:13;8.30;61.00
4103;DHT22;2065;49.790;9.620;2022-12-08T04:47:41;8.30;60.30
4103;DHT22;2065;49.790;9.620;2022-12-08T04:50:09;8.30;60.40
4103;DHT22;2065;49.790;9.620;2022-12-08T04:52:36;8.20;60.80
4103;DHT22;2065;49.790;9.620;2022-12-08T04:55:03;8.20;61.40
4103;DHT22;2065;49.790;9.620;2022-12-08T04:57:31;8.20;60.90
4103;DHT22;2065;49.790;9.620;2022-12-08T04:59:59;8.20;61.20
4103;DHT22;2065;49.790;9.620;2022-12-08T05:02:26;8.10;61.00
4103;DHT22;2065;49.790;9.620;2022-12-08T05:04:53;8.20;61.10
4103;DHT22;2065;49.790;9.620;2022-12-08T05:07:20;8.00;61.20
4103;DHT22;2065;49.790;9.620;2022-12-08T05:09:47;7.80;61.60
4103;DHT22;2065;49.790;9.620;2022-12-08T05:12:14;7.60;62.00
4103;DHT22;2065;49.790;9.620;2022-12-08T05:14:42;7.70;62.60
4103;DHT22;2065;49.790;9.620;2022-12-08T05:17:10;7.60;62.40
4103;DHT22;2065;49.790;9.620;2022-12-08T05:19:37;7.70;62.40
4103;DHT22;2065;49.790;9.620;2022-12-08T05:22:04;7.70;62.40
4103;DHT22;2065;49.790;9.620;2022-12-08T05:24:32;7.70;62.80
4103;DHT22;2065;49.790;9.620;2022-12-08T05:26:59;7.80;62.20
4103;DHT22;2065;49.790;9.620;2022-12-08T05:29:26;7.80;61.50
4103;DHT22;2065;49.790;9.620;2022-12-08T05:31:53;7.80;61.80
4103;DHT22;2065;49.790;9.620;2022-12-08T05:34:21;7.80;61.40
4103;DHT22;2065;49.790;9.620;2022-12-08T05:36:48;7.80;61.80
4103;DHT22;2065;49.790;9.620;2022-12-08T05:39:15;7.90;61.40
4103;DHT22;2065;49.790;9.620;2022-12-08T05:41:42;8.00;61.30
4103;DHT22;2065;49.790;9.620;2022-12-08T05:44:09;8.00;61.00
4103;DHT22;2065;49.790;9.620;2022-12-08T05:46:36;8.20;60.70
4103;DHT22;2065;49.790;9.620;2022-12-08T05:49:03;8.20;60.50
4103;DHT22;2065;49.790;9.620;2022-12-08T05:51:31;8.20;60.20
4103;DHT22;2065;49.790;9.620;2022-12-08T05:53:58;8.20;60.00
4103;DHT22;2065;49.790;9.620;2022-12-08T05:56:25;8.10;60.50
4103;DHT22;2065;49.790;9.620;2022-12-08T05:58:52;8.10;60.30
4103;DHT22;2065;49.790;9.620;2022-12-08T06:01:21;8.20;60.30
4103;DHT22;2065;49.790;9.620;2022-12-08T06:03:48;8.20;60.30
4103;DHT22;2065;49.790;9.620;2022-12-08T06:06:15;8.10;60.10
4103;DHT22;2065;49.790;9.620;2022-12-08T06:08:43;8.00;60.70
4103;DHT22;2065;49.790;9.620;2022-12-08T06:11:17;7.80;61.10
4103;DHT22;2065;49.790;9.620;2022-12-08T06:13:44;7.90;61.40
4103;DHT22;2065;49.790;9.620;2022-12-08T06:16:11;7.90;61.20
4103;DHT22;2065;49.790;9.620;2022-12-08T06:18:38;7.90;61.10
4103;DHT22;2065;49.790;9.620;2022-12-08T06:21:07;7.90;60.70
4103;DHT22;2065;49.790;9.620;2022-12-08T06:23:35;7.80;60.30
4103;DHT22;2065;49.790;9.620;2022-12-08T06:26:04;7.80;60.60
4103;DHT22;2065;49.790;9.620;2022-12-08T06:28:32;7.80;60.30
4103;DHT22;2065;49.790;9.620;2022-12-08T06:31:06;7.90;60.10
4103;DHT22;2065;49.790;9.620;2022-12-08T06:33:33;7.90;60.10
4103;DHT22;2065;49.790;9.620;2022-12-08T06:36:00;7.70;60.10
4103;DHT22;2065;49.790;9.620;2022-12-08T06:38:27;7.40;60.20
4103;DHT22;2065;49.790;9.620;2022-12-08T06:40:55;7.40;61.30
4103;DHT22;2065;49.790;9.620;2022-12-08T06:43:23;7.50;60.90
4103;DHT22;2065;49.790;9.620;2022-12-08T06:45:51;7.60;60.90
4103;DHT22;2065;49.790;9.620;2022-12-08T06:48:18;7.70;60.50
4103;DHT22;2065;49.790;9.620;2022-12-08T06:50:46;7.70;60.10
4103;DHT22;2065;49.790;9.620;2022-12-08T06:53:13;7.70;59.90
4103;DHT22;2065;49.790;9.620;2022-12-08T06:55:42;7.70;60.80
4103;DHT22;2065;49.790;9.620;2022-12-08T06:58:10;7.70;60.60
4103;DHT22;2065;49.790;9.620;2022-12-08T07:00:38;7.80;60.50
4103;DHT22;2065;49.790;9.620;2022-12-08T07:03:06;7.70;60.80
4103;DHT22;2065;49.790;9.620;2022-12-08T07:05:34;7.50;60.80
4103;DHT22;2065;49.790;9.620;2022-12-08T07:08:01;7.30;61.70
4103;DHT22;2065;49.790;9.620;2022-12-08T07:10:28;7.20;62.20
4103;DHT22;2065;49.790;9.620;2022-12-08T07:12:55;7.20;62.30
4103;DHT22;2065;49.790;9.620;2022-12-08T07:15:22;7.00;62.70
4103;DHT22;2065;49.790;9.620;2022-12-08T07:17:50;7.10;63.20
4103;DHT22;2065;49.790;9.620;2022-12-08T07:20:17;6.90;63.10
4103;DHT22;2065;49.790;9.620;2022-12-08T07:22:47;6.90;63.50
4103;DHT22;2065;49.790;9.620;2022-12-08T07:25:16;7.00;63.30
4103;DHT22;2065;49.790;9.620;2022-12-08T07:27:43;7.10;63.20
4103;DHT22;2065;49.790;9.620;2022-12-08T07:30:11;7.10;63.40
4103;DHT22;2065;49.790;9.620;2022-12-08T07:32:39;7.30;62.70
4103;DHT22;2065;49.790;9.620;2022-12-08T07:35:08;7.40;61.60
4103;DHT22;2065;49.790;9.620;2022-12-08T07:37:36;7.30;62.10
4103;DHT22;2065;49.790;9.620;2022-12-08T07:40:04;7.40;62.40
4103;DHT22;2065;49.790;9.620;2022-12-08T07:42:31;7.30;62.20
4103;DHT22;2065;49.790;9.620;2022-12-08T07:44:58;7.30;62.20
4103;DHT22;2065;49.790;9.620;2022-12-08T07:47:25;7.20;62.30
4103;DHT22;2065;49.790;9.620;2022-12-08T07:49:53;7.30;62.50
4103;DHT22;2065;49.790;9.620;2022-12-08T07:52:21;7.40;62.20
4103;DHT22;2065;49.790;9.620;2022-12-08T07:54:48;7.30;62.30
4103;DHT22;2065;49.790;9.620;2022-12-08T07:57:15;7.40;62.50
4103;DHT22;2065;49.790;9.620;2022-12-08T07:59:42;7.30;62.40
4103;DHT22;2065;49.790;9.620;2022-12-08T08:02:15;7.40;62.00
4103;DHT22;2065;49.790;9.620;2022-12-08T08:04:42;7.30;62.30
4103;DHT22;2065;49.790;9.620;2022-12-08T08:07:10;7.30;62.70
4103;DHT22;2065;49.790;9.620;2022-12-08T08:09:38;7.60;62.20
4103;DHT22;2065;49.790;9.620;2022-12-08T08:12:05;7.70;61.40
4103;DHT22;2065;49.790;9.620;2022-12-08T08:14:32;7.80;62.20
4103;DHT22;2065;49.790;9.620;2022-12-08T08:16:59;7.70;60.90
4103;DHT22;2065;49.790;9.620;2022-12-08T08:19:26;7.50;61.50
4103;DHT22;2065;49.790;9.620;2022-12-08T08:21:53;7.50;61.60
4103;DHT22;2065;49.790;9.620;2022-12-08T08:24:20;7.60;61.40
4103;DHT22;2065;49.790;9.620;2022-12-08T08:26:50;7.50;62.10
4103;DHT22;2065;49.790;9.620;2022-12-08T08:29:18;7.50;62.70
4103;DHT22;2065;49.790;9.620;2022-12-08T08:31:45;7.40;62.10
4103;DHT22;2065;49.790;9.620;2022-12-08T08:34:12;7.30;62.80
4103;DHT22;2065;49.790;9.620;2022-12-08T08:36:39;7.30;63.30
4103;DHT22;2065;49.790;9.620;2022-12-08T08:39:06;7.40;62.30
4103;DHT22;2065;49.790;9.620;2022-12-08T08:41:33;7.40;62.60
4103;DHT22;2065;49.790;9.620;2022-12-08T08:44:02;7.50;62.20
4103;DHT22;2065;49.790;9.620;2022-12-08T08:46:30;7.50;62.20
4103;DHT22;2065;49.790;9.620;2022-12-08T08:48:57;7.70;62.10
4103;DHT22;2065;49.790;9.620;2022-12-08T08:51:24;7.80;61.50
4103;DHT22;2065;49.790;9.620;2022-12-08T08:53:51;7.70;62.50
4103;DHT22;2065;49.790;9.620;2022-12-08T08:56:18;7.80;62.70
4103;DHT22;2065;49.790;9.620;2022-12-08T08:58:46;7.90;61.50
4103;DHT22;2065;49.790;9.620;2022-12-08T09:01:16;7.90;61.40
4103;DHT22;2065;49.790;9.620;2022-12-08T09:03:44;8.10;61.30
4103;DHT22;2065;49.790;9.620;2022-12-08T09:06:12;7.90;60.40
4103;DHT22;2065;49.790;9.620;2022-12-08T09:08:39;7.70;61.60
4103;DHT22;2065;49.790;9.620;2022-12-08T09:11:07;7.80;61.60
4103;DHT22;2065;49.790;9.620;2022-12-08T09:13:34;7.90;60.70
4103;DHT22;2065;49.790;9.620;2022-12-08T09:16:02;8.00;60.50
4103;DHT22;2065;49.790;9.620;2022-12-08T09:18:30;8.00;61.50
4103;DHT22;2065;49.790;9.620;2022-12-08T09:21:03;8.00;60.50
4103;DHT22;2065;49.790;9.620;2022-12-08T09:23:30;8.00;61.00
4103;DHT22;2065;49.790;9.620;2022-12-08T09:25:57;8.10;61.00
4103;DHT22;2065;49.790;9.620;2022-12-08T09:28:24;8.00;60.00
4103;DHT22;2065;49.790;9.620;2022-12-08T09:30:52;8.10;60.10
4103;DHT22;2065;49.790;9.620;2022-12-08T09:33:19;7.90;61.30
4103;DHT22;2065;49.790;9.620;2022-12-08T09:35:47;7.70;61.30
4103;DHT22;2065;49.790;9.620;2022-12-08T09:38:14;7.90;61.40
4103;DHT22;2065;49.790;9.620;2022-12-08T09:40:47;7.90;61.40
4103;DHT22;2065;49.790;9.620;2022-12-08T09:43:24;7.80;61.10
4103;DHT22;2065;49.790;9.620;2022-12-08T09:45:57;7.80;61.40
4103;DHT22;2065;49.790;9.620;2022-12-08T09:48:30;7.90;62.00
4103;DHT22;2065;49.790;9.620;2022-12-08T09:51:02;8.00;60.90
4103;DHT22;2065;49.790;9.620;2022-12-08T09:53:34;8.10;61.00
4103;DHT22;2065;49.790;9.620;2022-12-08T09:56:04;7.90;61.70
4103;DHT22;2065;49.790;9.620;2022-12-08T09:58:40;8.10;61.60
4103;DHT22;2065;49.790;9.620;2022-12-08T10:01:11;8.20;60.00
4103;DHT22;2065;49.790;9.620;2022-12-08T10:03:38;8.40;59.80
4103;DHT22;2065;49.790;9.620;2022-12-08T10:06:17;8.60;59.80
4103;DHT22;2065;49.790;9.620;2022-12-08T10:08:54;8.40;59.10
4103;DHT22;2065;49.790;9.620;2022-12-08T10:11:28;8.10;60.10
4103;DHT22;2065;49.790;9.620;2022-12-08T10:14:06;8.10;61.20
4103;DHT22;2065;49.790;9.620;2022-12-08T10:16:40;8.30;61.20
4103;DHT22;2065;49.790;9.620;2022-12-08T10:19:13;8.40;60.30
4103;DHT22;2065;49.790;9.620;2022-12-08T10:21:43;8.70;60.00
4103;DHT22;2065;49.790;9.620;2022-12-08T10:24:15;8.70;59.40
4103;DHT22;2065;49.790;9.620;2022-12-08T10:26:44;8.70;59.70
4103;DHT22;2065;49.790;9.620;2022-12-08T10:29:12;8.70;59.50
4103;DHT22;2065;49.790;9.620;2022-12-08T10:31:40;8.70;59.80
4103;DHT22;2065;49.790;9.620;2022-12-08T10:34:15;8.40;59.40
4103;DHT22;2065;49.790;9.620;2022-12-08T10:36:50;8.30;60.00
4103;DHT22;2065;49.790;9.620;2022-12-08T10:39:33;8.30;59.90
4103;DHT22;2065;49.790;9.620;2022-12-08T10:42:05;8.20;60.90
4103;DHT22;2065;49.790;9.620;2022-12-08T10:44:33;8.20;60.10
4103;DHT22;2065;49.790;9.620;2022-12-08T10:47:10;8.30;60.30
4103;DHT22;2065;49.790;9.620;2022-12-08T10:49:38;8.40;59.90
4103;DHT22;2065;49.790;9.620;2022-12-08T10:52:21;8.70;59.90
4103;DHT22;2065;49.790;9.620;2022-12-08T10:54:53;8.90;59.30
4103;DHT22;2065;49.790;9.620;2022-12-08T10:57:21;8.80;59.20
4103;DHT22;2065;49.790;9.620;2022-12-08T10:59:53;8.60;59.40
4103;DHT22;2065;49.790;9.620;2022-12-08T11:02:20;8.70;60.00
4103;DHT22;2065;49.790;9.620;2022-12-08T11:04:55;8.70;59.60
4103;DHT22;2065;49.790;9.620;2022-12-08T11:07:25;8.90;59.10
4103;DHT22;2065;49.790;9.620;2022-12-08T11:09:55;8.70;58.10
4103;DHT22;2065;49.790;9.620;2022-12-08T11:12:27;8.90;59.30
4103;DHT22;2065;49.790;9.620;2022-12-08T11:14:56;8.70;59.40
4103;DHT22;2065;49.790;9.620;2022-12-08T11:17:28;8.80;58.80
4103;DHT22;2065;49.790;9.620;2022-12-08T11:20:03;9.10;58.70
4103;DHT22;2065;49.790;9.620;2022-12-08T11:22:36;9.20;58.60
4103;DHT22;2065;49.790;9.620;2022-12-08T11:25:09;9.30;58.40
4103;DHT22;2065;49.790;9.620;2022-12-08T11:27:38;9.30;58.30
4103;DHT22;2065;49.790;9.620;2022-12-08T11:30:13;9.20;57.30
4103;DHT22;2065;49.790;9.620;2022-12-08T11:32:43;9.30;57.70
4103;DHT22;2065;49.790;9.620;2022-12-08T11:35:18;9.20;56.70
4103;DHT22;2065;49.790;9.620;2022-12-08T11:37:47;9.00;57.60
4103;DHT22;2065;49.790;9.620;2022-12-08T11:40:19;9.00;57.40
4103;DHT22;2065;49.790;9.620;2022-12-08T11:42:59;9.00;57.70
4103;DHT22;2065;49.790;9.620;2022-12-08T11:45:31;9.10;58.20
4103;DHT22;2065;49.790;9.620;2022-12-08T11:48:05;9.00;57.90
4103;DHT22;2065;49.790;9.620;2022-12-08T11:50:41;9.10;58.00
4103;DHT22;2065;49.790;9.620;2022-12-08T11:53:17;9.30;57.80
4103;DHT22;2065;49.790;9.620;2022-12-08T11:55:50;9.40;56.90
4103;DHT22;2065;49.790;9.620;2022-12-08T11:58:23;9.40;56.00
4103;DHT22;2065;49.790;9.620;2022-12-08T12:00:51;9.30;56.50
4103;DHT22;2065;49.790;9.620;2022-12-08T12:03:23;9.00;57.20
4103;DHT22;2065;49.790;9.620;2022-12-08T12:08:51;8.90;58.30
4103;DHT22;2065;49.790;9.620;2022-12-08T12:11:28;9.20;57.90
4103;DHT22;2065;49.790;9.620;2022-12-08T12:14:29;9.40;56.90
4103;DHT22;2065;49.790;9.620;2022-12-08T12:17:01;9.30;56.10
4103;DHT22;2065;49.790;9.620;2022-12-08T12:19:33;9.50;56.40
4103;DHT22;2065;49.790;9.620;2022-12-08T12:22:08;9.50;56.70
4103;DHT22;2065;49.790;9.620;2022-12-08T12:24:39;9.30;56.10
4103;DHT22;2065;49.790;9.620;2022-12-08T12:27:21;9.30;56.20
4103;DHT22;2065;49.790;9.620;2022-12-08T12:29:51;9.10;57.20
4103;DHT22;2065;49.790;9.620;2022-12-08T12:32:20;8.80;57.40
4103;DHT22;2065;49.790;9.620;2022-12-08T12:34:49;9.00;57.80
4103;DHT22;2065;49.790;9.620;2022-12-08T12:37:20;9.00;57.50
4103;DHT22;2065;49.790;9.620;2022-12-08T12:39:56;9.10;57.30
4103;DHT22;2065;49.790;9.620;2022-12-08T12:42:36;9.30;56.70
4103;DHT22;2065;49.790;9.620;2022-12-08T12:45:22;9.30;57.40
4103;DHT22;2065;49.790;9.620;2022-12-08T12:47:51;9.40;57.00
4103;DHT22;2065;49.790;9.620;2022-12-08T12:50:39;9.30;56.30
4103;DHT22;2065;49.790;9.620;2022-12-08T12:53:47;9.30;56.00
4103;DHT22;2065;49.790;9.620;2022-12-08T12:56:46;9.20;56.60
4103;DHT22;2065;49.790;9.620;2022-12-08T12:59:40;9.20;56.50
4103;DHT22;2065;49.790;9.620;2022-12-08T13:02:20;9.40;56.80
4103;DHT22;2065;49.790;9.620;2022-12-08T13:04:58;9.30;56.10
4103;DHT22;2065;49.790;9.620;2022-12-08T13:07:28;9.30;56.20
4103;DHT22;2065;49.790;9.620;2022-12-08T13:09:59;9.10;55.10
4103;DHT22;2065;49.790;9.620;2022-12-08T13:12:29;8.90;55.50
4103;DHT22;2065;49.790;9.620;2022-12-08T13:15:04;9.00;55.90
4103;DHT22;2065;49.790;9.620;2022-12-08T13:17:35;9.20;56.20
4103;DHT22;2065;49.790;9.620;2022-12-08T13:20:06;9.30;56.20
4103;DHT22;2065;49.790;9.620;2022-12-08T13:22:49;9.40;55.70
4103;DHT22;2065;49.790;9.620;2022-12-08T13:25:51;9.60;55.20
4103;DHT22;2065;49.790;9.620;2022-12-08T13:28:26;9.80;54.40
4103;DHT22;2065;49.790;9.620;2022-12-08T13:30:55;9.80;53.60
4103;DHT22;2065;49.790;9.620;2022-12-08T13:33:29;9.90;54.10
4103;DHT22;2065;49.790;9.620;2022-12-08T13:36:06;10.00;53.60
4103;DHT22;2065;49.790;9.620;2022-12-08T13:38:37;10.20;53.10
4103;DHT22;2065;49.790;9.620;2022-12-08T13:41:08;10.20;53.30
4103;DHT22;2065;49.790;9.620;2022-12-08T13:43:44;10.30;53.30
4103;DHT22;2065;49.790;9.620;2022-12-08T13:46:14;10.30;53.00
4103;DHT22;2065;49.790;9.620;2022-12-08T13:48:47;10.40;52.60
4103;DHT22;2065;49.790;9.620;2022-12-08T13:51:17;10.40;53.00
4103;DHT22;2065;49.790;9.620;2022-12-08T13:53:55;10.40;52.60
4103;DHT22;2065;49.790;9.620;2022-12-08T13:56:25;10.10;52.20
4103;DHT22;2065;49.790;9.620;2022-12-08T13:59:06;9.90;54.20
4103;DHT22;2065;49.790;9.620;2022-12-08T14:01:40;9.90;53.70
4103;DHT22;2065;49.790;9.620;2022-12-08T14:04:13;9.90;54.10
4103;DHT22;2065;49.790;9.620;2022-12-08T14:06:43;9.80;53.20
4103;DHT22;2065;49.790;9.620;2022-12-08T14:09:13;9.90;53.50
4103;DHT22;2065;49.790;9.620;2022-12-08T14:11:43;9.90;54.30
4103;DHT22;2065;49.790;9.620;2022-12-08T14:14:16;9.60;53.60
4103;DHT22;2065;49.790;9.620;2022-12-08T14:16:48;9.50;54.10
4103;DHT22;2065;49.790;9.620;2022-12-08T14:19:17;9.50;53.90
4103;DHT22;2065;49.790;9.620;2022-12-08T14:21:55;9.40;54.00
4103;DHT22;2065;49.790;9.620;2022-12-08T14:24:23;9.40;54.10
4103;DHT22;2065;49.790;9.620;2022-12-08T14:26:53;9.10;53.70
4103;DHT22;2065;49.790;9.620;2022-12-08T14:29:39;9.10;53.80
4103;DHT22;2065;49.790;9.620;2022-12-08T14:32:19;9.20;54.00
4103;DHT22;2065;49.790;9.620;2022-12-08T14:34:51;9.20;53.90
4103;DHT22;2065;49.790;9.620;2022-12-08T14:37:20;9.30;54.60
4103;DHT22;2065;49.790;9.620;2022-12-08T14:39:48;9.20;54.30
4103;DHT22;2065;49.790;9.620;2022-12-08T14:42:20;9.30;54.10
4103;DHT22;2065;49.790;9.620;2022-12-08T14:44:55;9.30;53.90
4103;DHT22;2065;49.790;9.620;2022-12-08T14:47:28;9.40;54.00
4103;DHT22;2065;49.790;9.620;2022-12-08T14:49:55;9.50;54.10
4103;DHT22;2065;49.790;9.620;2022-12-08T14:52:22;9.50;54.20
4103;DHT22;2065;49.790;9.620;2022-12-08T14:54:50;9.40;54.20
4103;DHT22;2065;49.790;9.620;2022-12-08T14:57:18;9.40;54.60
4103;DHT22;2065;49.790;9.620;2022-12-08T14:59:46;9.40;55.30
4103;DHT22;2065;49.790;9.620;2022-12-08T15:02:25;9.20;55.90
4103;DHT22;2065;49.790;9.620;2022-12-08T15:04:57;8.90;56.70
4103;DHT22;2065;49.790;9.620;2022-12-08T15:07:27;8.70;56.90
4103;DHT22;2065;49.790;9.620;2022-12-08T15:10:19;8.70;57.00
4103;DHT22;2065;49.790;9.620;2022-12-08T15:12:57;8.70;57.00
4103;DHT22;2065;49.790;9.620;2022-12-08T15:15:26;8.50;56.40
4103;DHT22;2065;49.790;9.620;2022-12-08T15:18:01;8.60;57.00
4103;DHT22;2065;49.790;9.620;2022-12-08T15:20:33;8.50;57.00
4103;DHT22;2065;49.790;9.620;2022-12-08T15:23:10;8.40;57.20
4103;DHT22;2065;49.790;9.620;2022-12-08T15:25:43;8.50;57.50
4103;DHT22;2065;49.790;9.620;2022-12-08T15:28:11;8.50;57.40
4103;DHT22;2065;49.790;9.620;2022-12-08T15:30:39;8.50;57.20
4103;DHT22;2065;49.790;9.620;2022-12-08T15:33:08;8.50;57.00
4103;DHT22;2065;49.790;9.620;2022-12-08T15:35:35;8.50;57.00
4103;DHT22;2065;49.790;9.620;2022-12-08T15:38:02;8.50;57.50
4103;DHT22;2065;49.790;9.620;2022-12-08T15:40:29;8.40;56.90
4103;DHT22;2065;49.790;9.620;2022-12-08T15:42:56;8.40;57.20
4103;DHT22;2065;49.790;9.620;2022-12-08T15:45:29;8.40;57.30
4103;DHT22;2065;49.790;9.620;2022-12-08T15:47:56;8.30;57.00
4103;DHT22;2065;49.790;9.620;2022-12-08T15:50:25;8.30;57.00
4103;DHT22;2065;49.790;9.620;2022-12-08T15:52:52;8.40;57.10
4103;DHT22;2065;49.790;9.620;2022-12-08T15:55:20;8.50;56.40
4103;DHT22;2065;49.790;9.620;2022-12-08T15:57:49;8.40;56.50
4103;DHT22;2065;49.790;9.620;2022-12-08T16:00:26;8.40;56.20
4103;DHT22;2065;49.790;9.620;2022-12-08T16:02:55;8.50;56.60
4103;DHT22;2065;49.790;9.620;2022-12-08T16:05:23;8.30;56.60
4103;DHT22;2065;49.790;9.620;2022-12-08T16:07:52;8.30;56.30
4103;DHT22;2065;49.790;9.620;2022-12-08T16:10:21;8.40;56.50
4103;DHT22;2065;49.790;9.620;2022-12-08T16:12:48;8.50;56.70
4103;DHT22;2065;49.790;9.620;2022-12-08T16:15:35;8.50;55.70
4103;DHT22;2065;49.790;9.620;2022-12-08T16:18:02;8.50;55.90
4103;DHT22;2065;49.790;9.620;2022-12-08T16:20:29;8.40;55.80
4103;DHT22;2065;49.790;9.620;2022-12-08T16:22:58;8.50;55.50
4103;DHT22;2065;49.790;9.620;2022-12-08T16:25:25;8.40;55.00
4103;DHT22;2065;49.790;9.620;2022-12-08T16:27:54;8.40;56.00
4103;DHT22;2065;49.790;9.620;2022-12-08T16:30:21;8.40;56.50
4103;DHT22;2065;49.790;9.620;2022-12-08T16:32:48;8.60;56.20
4103;DHT22;2065;49.790;9.620;2022-12-08T16:35:16;8.70;56.20
4103;DHT22;2065;49.790;9.620;2022-12-08T16:37:43;8.70;55.50
4103;DHT22;2065;49.790;9.620;2022-12-08T16:40:12;8.60;55.10
4103;DHT22;2065;49.790;9.620;2022-12-08T16:42:39;8.50;55.20
4103;DHT22;2065;49.790;9.620;2022-12-08T16:45:08;8.50;55.00